sensor_id;sensor_type;location;lat;lon;timestamp;pressure;altitude;pressure_sealevel;temperature;humidity
23619;BME280;18207;32.078;34.818;2023-05-03T00:00:57;101310.41;;;26.80;43.51
23619;BME280;18207;32.078;34.818;2023-05-03T00:03:28;101304.75;;;26.80;43.56
23619;BME280;18207;32.078;34.818;2023-05-03T00:06:09;101314.06;;;26.81;43.50
23619;BME280;18207;32.078;34.818;2023-05-03T00:08:40;101308.75;;;26.79;43.48
23619;BME280;18207;32.078;34.818;2023-05-03T00:11:10;101312.41;;;26.80;43.36
23619;BME280;18207;32.078;34.818;2023-05-03T00:13:41;101312.41;;;26.80;43.74
23619;BME280;18207;32.078;34.818;2023-05-03T00:16:11;101307.13;;;26.78;43.63
23619;BME280;18207;32.078;34.818;2023-05-03T00:18:41;101303.94;;;26.80;43.59
23619;BME280;18207;32.078;34.818;2023-05-03T00:21:13;101305.94;;;26.79;43.68
23619;BME280;18207;32.078;34.818;2023-05-03T00:23:43;101306.31;;;26.78;43.63
23619;BME280;18207;32.078;34.818;2023-05-03T00:26:14;101302.69;;;26.77;43.70
23619;BME280;18207;32.078;34.818;2023-05-03T00:28:44;101310.31;;;26.77;43.95
23619;BME280;18207;32.078;34.818;2023-05-03T00:31:14;101299.03;;;26.77;43.69
23619;BME280;18207;32.078;34.818;2023-05-03T00:33:44;101301.03;;;26.76;43.64
23619;BME280;18207;32.078;34.818;2023-05-03T00:36:17;101303.88;;;26.76;43.68
23619;BME280;18207;32.078;34.818;2023-05-03T00:38:47;101301.84;;;26.77;43.64
23619;BME280;18207;32.078;34.818;2023-05-03T00:41:18;101297.38;;;26.76;43.73
23619;BME280;18207;32.078;34.818;2023-05-03T00:43:48;101297.75;;;26.74;43.67
23619;BME280;18207;32.078;34.818;2023-05-03T00:46:19;101296.59;;;26.75;43.70
23619;BME280;18207;32.078;34.818;2023-05-03T00:48:49;101296.59;;;26.75;43.75
23619;BME280;18207;32.078;34.818;2023-05-03T00:51:22;101285.31;;;26.75;43.80
23619;BME280;18207;32.078;34.818;2023-05-03T00:53:55;101288.13;;;26.75;43.77
23619;BME280;18207;32.078;34.818;2023-05-03T00:56:25;101278.81;;;26.75;43.97
23619;BME280;18207;32.078;34.818;2023-05-03T00:59:05;101286.03;;;26.72;44.11
23619;BME280;18207;32.078;34.818;2023-05-03T01:01:35;101284.84;;;26.73;44.11
23619;BME280;18207;32.078;34.818;2023-05-03T01:04:06;101284.84;;;26.73;44.00
23619;BME280;18207;32.078;34.818;2023-05-03T01:06:44;101282.03;;;26.73;43.80
23619;BME280;18207;32.078;34.818;2023-05-03T01:09:30;101286.41;;;26.71;43.74
23619;BME280;18207;32.078;34.818;2023-05-03T01:12:19;101288.38;;;26.70;43.95
23619;BME280;18207;32.078;34.818;2023-05-03T01:15:04;101287.91;;;26.68;43.85
23619;BME280;18207;32.078;34.818;2023-05-03T01:17:42;101296.38;;;26.68;43.93
23619;BME280;18207;32.078;34.818;2023-05-03T01:20:21;101302.41;;;26.67;44.04
23619;BME280;18207;32.078;34.818;2023-05-03T01:23:10;101295.94;;;26.66;43.87
23619;BME280;18207;32.078;34.818;2023-05-03T01:25:45;101296.75;;;26.67;43.72
23619;BME280;18207;32.078;34.818;2023-05-03T01:28:16;101303.56;;;26.66;43.94
23619;BME280;18207;32.078;34.818;2023-05-03T01:30:47;101308.03;;;26.67;44.10
23619;BME280;18207;32.078;34.818;2023-05-03T01:33:29;101308.88;;;26.67;44.11
23619;BME280;18207;32.078;34.818;2023-05-03T01:36:10;101304.41;;;26.66;44.07
23619;BME280;18207;32.078;34.818;2023-05-03T01:38:42;101299.94;;;26.65;44.08
23619;BME280;18207;32.078;34.818;2023-05-03T01:41:17;101304.41;;;26.66;44.11
23619;BME280;18207;32.078;34.818;2023-05-03T01:43:52;101291.50;;;26.65;44.10
23619;BME280;18207;32.078;34.818;2023-05-03T01:46:24;101291.50;;;26.65;44.04
23619;BME280;18207;32.078;34.818;2023-05-03T01:48:54;101290.66;;;26.65;44.00
23619;BME280;18207;32.078;34.818;2023-05-03T01:51:25;101285.38;;;26.63;44.06
23619;BME280;18207;32.078;34.818;2023-05-03T01:53:55;101293.38;;;26.61;44.04
23619;BME280;18207;32.078;34.818;2023-05-03T01:56:27;101288.13;;;26.60;44.16
23619;BME280;18207;32.078;34.818;2023-05-03T01:58:58;101292.13;;;26.59;44.04
23619;BME280;18207;32.078;34.818;2023-05-03T02:01:29;101283.19;;;26.57;43.97
23619;BME280;18207;32.078;34.818;2023-05-03T02:03:59;101285.13;;;26.53;43.80
23619;BME280;18207;32.078;34.818;2023-05-03T02:06:30;101285.84;;;26.50;43.92
23619;BME280;18207;32.078;34.818;2023-05-03T02:08:59;101279.28;;;26.46;43.92
23619;BME280;18207;32.078;34.818;2023-05-03T02:11:32;101267.91;;;26.42;43.80
23619;BME280;18207;32.078;34.818;2023-05-03T02:14:03;101272.63;;;26.38;43.56
23619;BME280;18207;32.078;34.818;2023-05-03T02:16:33;101280.97;;;26.35;43.83
23619;BME280;18207;32.078;34.818;2023-05-03T02:19:04;101279.69;;;26.32;43.70
23619;BME280;18207;32.078;34.818;2023-05-03T02:21:36;101275.97;;;26.28;43.78
23619;BME280;18207;32.078;34.818;2023-05-03T02:24:07;101282.31;;;26.25;43.73
23619;BME280;18207;32.078;34.818;2023-05-03T02:26:39;101284.22;;;26.21;43.52
23619;BME280;18207;32.078;34.818;2023-05-03T02:29:08;101284.97;;;26.18;43.73
23619;BME280;18207;32.078;34.818;2023-05-03T02:31:39;101282.84;;;26.15;43.71
23619;BME280;18207;32.078;34.818;2023-05-03T02:34:09;101284.41;;;26.13;43.86
23619;BME280;18207;32.078;34.818;2023-05-03T02:36:39;101282.75;;;26.12;43.77
23619;BME280;18207;32.078;34.818;2023-05-03T02:39:10;101279.47;;;26.10;43.80
23619;BME280;18207;32.078;34.818;2023-05-03T02:41:43;101267.75;;;26.08;43.81
23619;BME280;18207;32.078;34.818;2023-05-03T02:44:13;101269.75;;;26.07;43.92
23619;BME280;18207;32.078;34.818;2023-05-03T02:46:44;101270.94;;;26.06;43.47
23619;BME280;18207;32.078;34.818;2023-05-03T02:49:14;101269.28;;;26.05;43.51
23619;BME280;18207;32.078;34.818;2023-05-03T02:51:44;101270.47;;;26.04;43.74
23619;BME280;18207;32.078;34.818;2023-05-03T02:54:14;101276.09;;;26.04;43.69
23619;BME280;18207;32.078;34.818;2023-05-03T02:56:47;101272.81;;;26.02;43.74
23619;BME280;18207;32.078;34.818;2023-05-03T02:59:18;101274.00;;;26.01;43.58
23619;BME280;18207;32.078;34.818;2023-05-03T03:01:49;101284.44;;;26.01;43.51
23619;BME280;18207;32.078;34.818;2023-05-03T03:04:19;101278.34;;;25.99;43.71
23619;BME280;18207;32.078;34.818;2023-05-03T03:06:50;101277.88;;;25.97;43.71
23619;BME280;18207;32.078;34.818;2023-05-03T03:09:21;101291.16;;;25.97;43.79
23619;BME280;18207;32.078;34.818;2023-05-03T03:11:53;101290.69;;;25.95;43.72
23619;BME280;18207;32.078;34.818;2023-05-03T03:14:24;101291.88;;;25.94;43.60
23619;BME280;18207;32.078;34.818;2023-05-03T03:16:54;101297.50;;;25.94;43.53
23619;BME280;18207;32.078;34.818;2023-05-03T03:19:25;101296.22;;;25.91;43.73
23619;BME280;18207;32.078;34.818;2023-05-03T03:21:55;101304.22;;;25.89;43.71
23619;BME280;18207;32.078;34.818;2023-05-03T03:24:26;101298.94;;;25.88;43.84
23619;BME280;18207;32.078;34.818;2023-05-03T03:26:58;101294.84;;;25.85;43.78
23619;BME280;18207;32.078;34.818;2023-05-03T03:29:31;101298.84;;;25.84;43.79
23619;BME280;18207;32.078;34.818;2023-05-03T03:32:02;101293.94;;;25.81;43.80
23619;BME280;18207;32.078;34.818;2023-05-03T03:34:33;101297.53;;;25.82;43.80
23619;BME280;18207;32.078;34.818;2023-05-03T03:37:04;101311.16;;;25.80;44.13
23619;BME280;18207;32.078;34.818;2023-05-03T03:39:34;101307.53;;;25.79;43.96
23619;BME280;18207;32.078;34.818;2023-05-03T03:42:10;101307.16;;;25.81;43.91
23619;BME280;18207;32.078;34.818;2023-05-03T03:44:42;101314.81;;;25.80;44.12
23619;BME280;18207;32.078;34.818;2023-05-03T03:47:12;101317.25;;;25.82;44.04
23619;BME280;18207;32.078;34.818;2023-05-03T03:49:43;101321.72;;;25.83;43.97
23619;BME280;18207;32.078;34.818;2023-05-03T03:52:13;101327.81;;;25.85;44.19
23619;BME280;18207;32.078;34.818;2023-05-03T03:54:44;101329.47;;;25.86;44.06
23619;BME280;18207;32.078;34.818;2023-05-03T03:57:16;101334.38;;;25.89;44.18
23619;BME280;18207;32.078;34.818;2023-05-03T03:59:46;101329.56;;;25.89;44.16
23619;BME280;18207;32.078;34.818;2023-05-03T04:02:18;101341.28;;;25.91;44.37
23619;BME280;18207;32.078;34.818;2023-05-03T04:04:49;101339.75;;;25.94;44.21
23619;BME280;18207;32.078;34.818;2023-05-03T04:07:20;101336.94;;;25.94;44.08
23619;BME280;18207;32.078;34.818;2023-05-03T04:09:50;101333.75;;;25.95;44.21
23619;BME280;18207;32.078;34.818;2023-05-03T04:12:22;101340.22;;;25.96;44.20
23619;BME280;18207;32.078;34.818;2023-05-03T04:14:53;101333.75;;;25.95;44.37
23619;BME280;18207;32.078;34.818;2023-05-03T04:17:24;101333.75;;;25.95;44.32
23619;BME280;18207;32.078;34.818;2023-05-03T04:19:56;101339.38;;;25.95;44.86
23619;BME280;18207;32.078;34.818;2023-05-03T04:22:26;101338.59;;;25.95;44.30
23619;BME280;18207;32.078;34.818;2023-05-03T04:24:58;101334.13;;;25.94;44.23
23619;BME280;18207;32.078;34.818;2023-05-03T04:27:30;101341.41;;;25.95;44.42
23619;BME280;18207;32.078;34.818;2023-05-03T04:30:01;101343.41;;;25.94;44.68
23619;BME280;18207;32.078;34.818;2023-05-03T04:32:32;101345.03;;;25.95;44.31
23619;BME280;18207;32.078;34.818;2023-05-03T04:35:05;101342.66;;;25.97;44.69
23619;BME280;18207;32.078;34.818;2023-05-03T04:37:41;101350.41;;;26.00;44.71
23619;BME280;18207;32.078;34.818;2023-05-03T04:40:11;101353.69;;;26.02;44.76
23619;BME280;18207;32.078;34.818;2023-05-03T04:42:46;101348.16;;;26.05;44.66
23619;BME280;18207;32.078;34.818;2023-05-03T04:45:17;101345.06;;;26.10;44.84
23619;BME280;18207;32.078;34.818;2023-05-03T04:47:48;101342.34;;;26.14;44.97
23619;BME280;18207;32.078;34.818;2023-05-03T04:50:19;101357.84;;;26.20;45.04
23619;BME280;18207;32.078;34.818;2023-05-03T04:52:50;101358.41;;;26.25;45.05
23619;BME280;18207;32.078;34.818;2023-05-03T04:55:19;101351.69;;;26.30;45.05
23619;BME280;18207;32.078;34.818;2023-05-03T04:57:53;101357.06;;;26.35;45.18
23619;BME280;18207;32.078;34.818;2023-05-03T05:00:24;101359.66;;;26.40;45.23
23619;BME280;18207;32.078;34.818;2023-05-03T05:02:55;101356.56;;;26.45;45.33
23619;BME280;18207;32.078;34.818;2023-05-03T05:05:26;101355.13;;;26.51;45.15
23619;BME280;18207;32.078;34.818;2023-05-03T05:07:56;101362.50;;;26.55;45.10
23619;BME280;18207;32.078;34.818;2023-05-03T05:10:26;101364.25;;;26.60;45.09
23619;BME280;18207;32.078;34.818;2023-05-03T05:12:58;101357.16;;;26.66;44.93
23619;BME280;18207;32.078;34.818;2023-05-03T05:15:28;101357.25;;;26.69;45.14
23619;BME280;18207;32.078;34.818;2023-05-03T05:17:59;101354.97;;;26.75;45.47
23619;BME280;18207;32.078;34.818;2023-05-03T05:20:30;101354.72;;;26.80;45.48
23619;BME280;18207;32.078;34.818;2023-05-03T05:23:00;101349.63;;;26.85;45.25
23619;BME280;18207;32.078;34.818;2023-05-03T05:25:31;101350.97;;;26.91;44.93
23619;BME280;18207;32.078;34.818;2023-05-03T05:28:02;101350.72;;;26.96;45.21
23619;BME280;18207;32.078;34.818;2023-05-03T05:30:33;101347.63;;;27.01;45.17
23619;BME280;18207;32.078;34.818;2023-05-03T05:33:03;101351.00;;;27.06;45.24
23619;BME280;18207;32.078;34.818;2023-05-03T05:35:34;101343.09;;;27.12;45.32
23619;BME280;18207;32.078;34.818;2023-05-03T05:38:04;101346.44;;;27.17;45.39
23619;BME280;18207;32.078;34.818;2023-05-03T05:40:35;101344.16;;;27.23;45.08
23619;BME280;18207;32.078;34.818;2023-05-03T05:43:08;101344.72;;;27.28;45.31
23619;BME280;18207;32.078;34.818;2023-05-03T05:45:39;101344.41;;;27.33;45.27
23619;BME280;18207;32.078;34.818;2023-05-03T05:48:10;101353.81;;;27.37;45.36
23619;BME280;18207;32.078;34.818;2023-05-03T05:50:40;101362.81;;;27.43;45.09
23619;BME280;18207;32.078;34.818;2023-05-03T05:53:10;101358.88;;;27.47;45.19
23619;BME280;18207;32.078;34.818;2023-05-03T05:55:41;101358.59;;;27.52;45.17
23619;BME280;18207;32.078;34.818;2023-05-03T05:58:13;101353.03;;;27.56;45.14
23619;BME280;18207;32.078;34.818;2023-05-03T06:00:44;101351.56;;;27.62;44.81
23619;BME280;18207;32.078;34.818;2023-05-03T06:03:16;101354.09;;;27.67;45.09
23619;BME280;18207;32.078;34.818;2023-05-03T06:05:46;101347.72;;;27.70;45.07
23619;BME280;18207;32.078;34.818;2023-05-03T06:08:16;101362.38;;;27.75;45.26
23619;BME280;18207;32.078;34.818;2023-05-03T06:10:47;101352.81;;;27.79;44.98
23619;BME280;18207;32.078;34.818;2023-05-03T06:13:22;101361.00;;;27.84;44.69
23619;BME280;18207;32.078;34.818;2023-05-03T06:15:53;101347.75;;;27.88;45.11
23619;BME280;18207;32.078;34.818;2023-05-03T06:18:23;101355.94;;;27.93;45.25
23619;BME280;18207;32.078;34.818;2023-05-03T06:20:54;101355.19;;;27.96;44.94
23619;BME280;18207;32.078;34.818;2023-05-03T06:23:24;101362.53;;;28.01;45.25
23619;BME280;18207;32.078;34.818;2023-05-03T06:25:54;101360.63;;;28.05;45.13
23619;BME280;18207;32.078;34.818;2023-05-03T06:28:27;101361.16;;;28.10;44.95
23619;BME280;18207;32.078;34.818;2023-05-03T06:31:00;101359.59;;;28.13;45.18
23619;BME280;18207;32.078;34.818;2023-05-03T06:33:31;101362.84;;;28.15;44.62
23619;BME280;18207;32.078;34.818;2023-05-03T06:36:01;101362.94;;;28.18;45.02
23619;BME280;18207;32.078;34.818;2023-05-03T06:38:32;101365.03;;;28.21;44.71
23619;BME280;18207;32.078;34.818;2023-05-03T06:41:02;101363.09;;;28.25;45.04
23619;BME280;18207;32.078;34.818;2023-05-03T06:43:35;101369.66;;;28.29;44.70
23619;BME280;18207;32.078;34.818;2023-05-03T06:46:05;101363.25;;;28.32;44.86
23619;BME280;18207;32.078;34.818;2023-05-03T06:48:35;101369.00;;;28.36;44.80
23619;BME280;18207;32.078;34.818;2023-05-03T06:51:06;101357.75;;;28.39;44.55
23619;BME280;18207;32.078;34.818;2023-05-03T06:53:36;101362.66;;;28.42;44.88
23619;BME280;18207;32.078;34.818;2023-05-03T06:56:07;101355.44;;;28.45;44.73
23619;BME280;18207;32.078;34.818;2023-05-03T06:58:40;101352.66;;;28.48;44.70
23619;BME280;18207;32.078;34.818;2023-05-03T07:01:10;101359.22;;;28.52;44.55
23619;BME280;18207;32.078;34.818;2023-05-03T07:03:40;101352.78;;;28.55;44.58
23619;BME280;18207;32.078;34.818;2023-05-03T07:06:11;101348.03;;;28.59;44.41
23619;BME280;18207;32.078;34.818;2023-05-03T07:08:41;101337.97;;;28.62;44.58
23619;BME280;18207;32.078;34.818;2023-05-03T07:11:12;101339.66;;;28.66;44.88
23619;BME280;18207;32.078;34.818;2023-05-03T07:13:43;101342.94;;;28.68;44.81
23619;BME280;18207;32.078;34.818;2023-05-03T07:16:14;101341.81;;;28.72;44.95
23619;BME280;18207;32.078;34.818;2023-05-03T07:18:44;101343.91;;;28.75;44.75
23619;BME280;18207;32.078;34.818;2023-05-03T07:21:15;101341.13;;;28.79;44.30
23619;BME280;18207;32.078;34.818;2023-05-03T07:23:45;101347.72;;;28.83;44.34
23619;BME280;18207;32.078;34.818;2023-05-03T07:26:15;101344.09;;;28.86;44.50
23619;BME280;18207;32.078;34.818;2023-05-03T07:28:47;101351.47;;;28.90;44.71
23619;BME280;18207;32.078;34.818;2023-05-03T07:31:18;101347.88;;;28.93;44.62
23619;BME280;18207;32.078;34.818;2023-05-03T07:33:50;101345.13;;;28.97;44.79
23619;BME280;18207;32.078;34.818;2023-05-03T07:36:20;101347.19;;;29.00;44.51
23619;BME280;18207;32.078;34.818;2023-05-03T07:38:50;101345.22;;;29.04;44.63
23619;BME280;18207;32.078;34.818;2023-05-03T07:41:21;101333.53;;;29.05;44.56
23619;BME280;18207;32.078;34.818;2023-05-03T07:43:53;101337.22;;;29.09;44.72
23619;BME280;18207;32.078;34.818;2023-05-03T07:46:23;101335.69;;;29.12;44.12
23619;BME280;18207;32.078;34.818;2023-05-03T07:48:54;101335.72;;;29.15;44.69
23619;BME280;18207;32.078;34.818;2023-05-03T07:51:24;101331.31;;;29.18;44.48
23619;BME280;18207;32.078;34.818;2023-05-03T07:53:55;101337.88;;;29.22;44.63
23619;BME280;18207;32.078;34.818;2023-05-03T07:56:27;101330.22;;;29.26;44.42
23619;BME280;18207;32.078;34.818;2023-05-03T07:59:00;101325.44;;;29.30;44.53
23619;BME280;18207;32.078;34.818;2023-05-03T08:01:37;101322.66;;;29.33;44.67
23619;BME280;18207;32.078;34.818;2023-05-03T08:04:08;101321.06;;;29.36;44.20
23619;BME280;18207;32.078;34.818;2023-05-03T08:06:38;101323.19;;;29.39;44.18
23619;BME280;18207;32.078;34.818;2023-05-03T08:09:10;101316.78;;;29.42;44.22
23619;BME280;18207;32.078;34.818;2023-05-03T08:11:41;101318.81;;;29.45;44.22
23619;BME280;18207;32.078;34.818;2023-05-03T08:14:13;101317.22;;;29.47;44.14
23619;BME280;18207;32.078;34.818;2023-05-03T08:16:44;101312.84;;;29.50;44.46
23619;BME280;18207;32.078;34.818;2023-05-03T08:19:14;101307.97;;;29.50;44.20
23619;BME280;18207;32.078;34.818;2023-05-03T08:21:44;101304.78;;;29.52;44.32
23619;BME280;18207;32.078;34.818;2023-05-03T08:24:16;101300.72;;;29.52;44.27
23619;BME280;18207;32.078;34.818;2023-05-03T08:26:47;101309.66;;;29.54;44.26
23619;BME280;18207;32.078;34.818;2023-05-03T08:29:19;101306.47;;;29.56;43.70
23619;BME280;18207;32.078;34.818;2023-05-03T08:31:49;101306.06;;;29.57;44.28
23619;BME280;18207;32.078;34.818;2023-05-03T08:34:20;101303.66;;;29.59;44.30
23619;BME280;18207;32.078;34.818;2023-05-03T08:36:50;101306.91;;;29.61;44.49
23619;BME280;18207;32.078;34.818;2023-05-03T08:39:21;101311.81;;;29.64;44.15
23619;BME280;18207;32.078;34.818;2023-05-03T08:41:54;101315.09;;;29.66;43.93
23619;BME280;18207;32.078;34.818;2023-05-03T08:44:29;101303.38;;;29.68;44.19
23619;BME280;18207;32.078;34.818;2023-05-03T08:47:00;101300.97;;;29.70;43.68
23619;BME280;18207;32.078;34.818;2023-05-03T08:49:33;101301.41;;;29.72;43.92
23619;BME280;18207;32.078;34.818;2023-05-03T08:52:06;101301.84;;;29.74;43.69
23619;BME280;18207;32.078;34.818;2023-05-03T08:54:38;101307.94;;;29.76;44.35
23619;BME280;18207;32.078;34.818;2023-05-03T08:57:13;101297.84;;;29.78;43.70
23619;BME280;18207;32.078;34.818;2023-05-03T08:59:50;101289.78;;;29.80;44.05
23619;BME280;18207;32.078;34.818;2023-05-03T09:02:21;101298.69;;;29.82;43.67
23619;BME280;18207;32.078;34.818;2023-05-03T09:04:52;101291.84;;;29.83;43.84
23619;BME280;18207;32.078;34.818;2023-05-03T09:07:22;101293.47;;;29.84;43.52
23619;BME280;18207;32.078;34.818;2023-05-03T09:09:52;101288.63;;;29.85;43.92
23619;BME280;18207;32.078;34.818;2023-05-03T09:12:35;101290.69;;;29.88;43.90
23619;BME280;18207;32.078;34.818;2023-05-03T09:15:20;101291.50;;;29.88;44.09
23619;BME280;18207;32.078;34.818;2023-05-03T09:18:11;101278.97;;;29.89;44.02
23619;BME280;18207;32.078;34.818;2023-05-03T09:20:44;101282.59;;;29.90;43.89
23619;BME280;18207;32.078;34.818;2023-05-03T09:23:29;101283.03;;;29.92;44.14
23619;BME280;18207;32.078;34.818;2023-05-03T09:26:00;101288.34;;;29.93;43.82
23619;BME280;18207;32.078;34.818;2023-05-03T09:28:41;101278.66;;;29.94;43.28
23619;BME280;18207;32.078;34.818;2023-05-03T09:31:13;101270.50;;;29.93;43.87
23619;BME280;18207;32.078;34.818;2023-05-03T09:33:43;101272.16;;;29.94;43.72
23619;BME280;18207;32.078;34.818;2023-05-03T09:36:14;101266.91;;;29.96;43.62
23619;BME280;18207;32.078;34.818;2023-05-03T09:38:45;101266.91;;;29.96;43.53
23619;BME280;18207;32.078;34.818;2023-05-03T09:41:15;101269.38;;;29.97;43.28
23619;BME280;18207;32.078;34.818;2023-05-03T09:43:56;101269.38;;;29.97;43.51
23619;BME280;18207;32.078;34.818;2023-05-03T09:46:31;101262.88;;;29.97;43.22
23619;BME280;18207;32.078;34.818;2023-05-03T09:49:02;101265.34;;;29.98;43.47
23619;BME280;18207;32.078;34.818;2023-05-03T09:51:33;101265.78;;;30.00;43.27
23619;BME280;18207;32.078;34.818;2023-05-03T09:54:06;101255.25;;;30.01;43.44
23619;BME280;18207;32.078;34.818;2023-05-03T09:56:41;101256.88;;;30.02;42.96
23619;BME280;18207;32.078;34.818;2023-05-03T09:59:14;101247.16;;;30.03;43.04
23619;BME280;18207;32.078;34.818;2023-05-03T10:01:48;101250.81;;;30.03;42.69
23619;BME280;18207;32.078;34.818;2023-05-03T10:04:20;101240.28;;;30.04;42.98
23619;BME280;18207;32.078;34.818;2023-05-03T10:06:58;101246.75;;;30.04;42.98
23619;BME280;18207;32.078;34.818;2023-05-03T10:09:38;101254.88;;;30.06;43.03
23619;BME280;18207;32.078;34.818;2023-05-03T10:12:10;101242.72;;;30.05;42.97
23619;BME280;18207;32.078;34.818;2023-05-03T10:14:46;101243.94;;;30.04;42.45
23619;BME280;18207;32.078;34.818;2023-05-03T10:17:24;101239.09;;;30.05;42.44
23619;BME280;18207;32.078;34.818;2023-05-03T10:20:23;101228.56;;;30.05;42.64
23619;BME280;18207;32.078;34.818;2023-05-03T10:23:10;101242.72;;;30.05;42.94
23619;BME280;18207;32.078;34.818;2023-05-03T10:26:13;101243.94;;;30.04;42.52
23619;BME280;18207;32.078;34.818;2023-05-03T10:28:44;101224.09;;;30.04;42.37
23619;BME280;18207;32.078;34.818;2023-05-03T10:31:44;101228.56;;;30.05;42.28
23619;BME280;18207;32.078;34.818;2023-05-03T10:34:25;101227.75;;;30.05;42.46
23619;BME280;18207;32.078;34.818;2023-05-03T10:37:04;101231.38;;;30.05;42.13
23619;BME280;18207;32.078;34.818;2023-05-03T10:39:43;101236.66;;;30.07;42.43
23619;BME280;18207;32.078;34.818;2023-05-03T10:42:14;101226.53;;;30.06;42.31
23619;BME280;18207;32.078;34.818;2023-05-03T10:44:51;101224.13;;;30.08;41.99
23619;BME280;18207;32.078;34.818;2023-05-03T10:47:23;101222.13;;;30.08;42.25
23619;BME280;18207;32.078;34.818;2023-05-03T10:50:40;101226.94;;;30.08;41.89
23619;BME280;18207;32.078;34.818;2023-05-03T10:53:37;101227.78;;;30.08;42.04
23619;BME280;18207;32.078;34.818;2023-05-03T10:56:10;101224.56;;;30.10;42.01
23619;BME280;18207;32.078;34.818;2023-05-03T10:58:44;101232.66;;;30.11;41.88
23619;BME280;18207;32.078;34.818;2023-05-03T11:01:17;101223.78;;;30.13;42.15
23619;BME280;18207;32.078;34.818;2023-05-03T11:03:56;101216.91;;;30.14;42.43
23619;BME280;18207;32.078;34.818;2023-05-03T11:06:33;101214.88;;;30.14;42.34
23619;BME280;18207;32.078;34.818;2023-05-03T11:09:05;101214.47;;;30.16;42.42
23619;BME280;18207;32.078;34.818;2023-05-03T11:11:39;101216.94;;;30.17;41.80
23619;BME280;18207;32.078;34.818;2023-05-03T11:14:11;101211.28;;;30.17;41.94
23619;BME280;18207;32.078;34.818;2023-05-03T11:16:42;101212.06;;;30.18;41.96
23619;BME280;18207;32.078;34.818;2023-05-03T11:19:18;101204.41;;;30.18;41.74
23619;BME280;18207;32.078;34.818;2023-05-03T11:21:51;101198.72;;;30.18;41.34
23619;BME280;18207;32.078;34.818;2023-05-03T11:24:21;101204.41;;;30.18;42.10
23619;BME280;18207;32.078;34.818;2023-05-03T11:26:51;101205.19;;;30.19;41.42
23619;BME280;18207;32.078;34.818;2023-05-03T11:29:24;101202.34;;;30.19;41.83
23619;BME280;18207;32.078;34.818;2023-05-03T11:31:55;101201.56;;;30.18;41.82
23619;BME280;18207;32.078;34.818;2023-05-03T11:34:25;101187.38;;;30.18;41.51
23619;BME280;18207;32.078;34.818;2023-05-03T11:36:59;101183.72;;;30.18;41.48
23619;BME280;18207;32.078;34.818;2023-05-03T11:39:31;101180.88;;;30.18;41.28
23619;BME280;18207;32.078;34.818;2023-05-03T11:42:03;101178.88;;;30.18;41.41
23619;BME280;18207;32.078;34.818;2023-05-03T11:44:33;101173.56;;;30.17;41.61
23619;BME280;18207;32.078;34.818;2023-05-03T11:47:05;101163.88;;;30.18;41.75
23619;BME280;18207;32.078;34.818;2023-05-03T11:49:36;101168.34;;;30.19;41.48
23619;BME280;18207;32.078;34.818;2023-05-03T11:52:08;101154.56;;;30.17;41.19
23619;BME280;18207;32.078;34.818;2023-05-03T11:54:39;101158.19;;;30.18;41.19
23619;BME280;18207;32.078;34.818;2023-05-03T11:57:12;101161.84;;;30.18;41.54
23619;BME280;18207;32.078;34.818;2023-05-03T11:59:44;101153.72;;;30.17;41.04
23619;BME280;18207;32.078;34.818;2023-05-03T12:02:15;101147.69;;;30.18;40.95
23619;BME280;18207;32.078;34.818;2023-05-03T12:04:45;101140.38;;;30.17;41.00
23619;BME280;18207;32.078;34.818;2023-05-03T12:07:18;101136.34;;;30.18;40.96
23619;BME280;18207;32.078;34.818;2023-05-03T12:09:52;101140.81;;;30.19;41.41
23619;BME280;18207;32.078;34.818;2023-05-03T12:12:54;101136.34;;;30.18;40.91
23619;BME280;18207;32.078;34.818;2023-05-03T12:15:29;101131.03;;;30.17;41.17
23619;BME280;18207;32.078;34.818;2023-05-03T12:18:03;101142.00;;;30.18;41.08
23619;BME280;18207;32.078;34.818;2023-05-03T12:20:38;101135.91;;;30.16;40.92
23619;BME280;18207;32.078;34.818;2023-05-03T12:23:30;101123.72;;;30.16;40.72
23619;BME280;18207;32.078;34.818;2023-05-03T12:26:01;101126.16;;;30.14;40.78
23619;BME280;18207;32.078;34.818;2023-05-03T12:28:32;101120.50;;;30.14;40.69
23619;BME280;18207;32.078;34.818;2023-05-03T12:31:03;101122.50;;;30.13;40.60
23619;BME280;18207;32.078;34.818;2023-05-03T12:33:33;101127.38;;;30.13;40.98
23619;BME280;18207;32.078;34.818;2023-05-03T12:36:06;101124.53;;;30.13;40.62
23619;BME280;18207;32.078;34.818;2023-05-03T12:38:43;101122.91;;;30.12;40.78
23619;BME280;18207;32.078;34.818;2023-05-03T12:41:17;101118.44;;;30.11;40.59
23619;BME280;18207;32.078;34.818;2023-05-03T12:44:06;101114.81;;;30.10;40.60
23619;BME280;18207;32.078;34.818;2023-05-03T12:46:37;101118.44;;;30.11;40.43
23619;BME280;18207;32.078;34.818;2023-05-03T12:49:11;101108.28;;;30.10;40.62
23619;BME280;18207;32.078;34.818;2023-05-03T12:51:42;101111.97;;;30.10;40.54
23619;BME280;18207;32.078;34.818;2023-05-03T12:54:33;101113.97;;;30.10;39.98
23619;BME280;18207;32.078;34.818;2023-05-03T12:57:08;101103.81;;;30.09;40.69
23619;BME280;18207;32.078;34.818;2023-05-03T12:59:43;101108.69;;;30.08;40.48
23619;BME280;18207;32.078;34.818;2023-05-03T13:02:20;101103.03;;;30.08;40.16
23619;BME280;18207;32.078;34.818;2023-05-03T13:04:53;101099.34;;;30.08;39.91
23619;BME280;18207;32.078;34.818;2023-05-03T13:07:28;101098.56;;;30.07;40.53
23619;BME280;18207;32.078;34.818;2023-05-03T13:10:11;101099.34;;;30.08;40.13